sensor_id;sensor_type;location;lat;lon;timestamp;pressure;altitude;pressure_sealevel;temperature;humidity
11542;BME280;5827;49.482;7.716;2023-02-28T00:00:53;99739.22;;;0.30;64.86
11542;BME280;5827;49.482;7.716;2023-02-28T00:02:55;99735.59;;;0.31;64.47
11542;BME280;5827;49.482;7.716;2023-02-28T00:04:56;99735.06;;;0.27;65.31
11542;BME280;5827;49.482;7.716;2023-02-28T00:07:01;99740.44;;;0.17;65.02
11542;BME280;5827;49.482;7.716;2023-02-28T00:09:02;99732.25;;;0.20;65.15
11542;BME280;5827;49.482;7.716;2023-02-28T00:11:06;99731.34;;;0.12;65.75
11542;BME280;5827;49.482;7.716;2023-02-28T00:13:08;99733.53;;;0.16;65.97
11542;BME280;5827;49.482;7.716;2023-02-28T00:15:11;99734.88;;;0.03;65.85
11542;BME280;5827;49.482;7.716;2023-02-28T00:17:12;99727.34;;;0.08;66.14
11542;BME280;5827;49.482;7.716;2023-02-28T00:19:14;99731.19;;;0.13;65.97
11542;BME280;5827;49.482;7.716;2023-02-28T00:21:16;99725.72;;;0.07;66.94
11542;BME280;5827;49.482;7.716;2023-02-28T00:23:18;99726.53;;;-0.11;66.93
11542;BME280;5827;49.482;7.716;2023-02-28T00:25:23;99730.81;;;0.08;66.48
11542;BME280;5827;49.482;7.716;2023-02-28T00:27:25;99730.44;;;0.03;66.65
11542;BME280;5827;49.482;7.716;2023-02-28T00:29:27;99731.44;;;0.02;66.86
11542;BME280;5827;49.482;7.716;2023-02-28T00:31:29;99727.91;;;-0.07;67.28
11542;BME280;5827;49.482;7.716;2023-02-28T00:33:31;99728.88;;;-0.08;67.71
11542;BME280;5827;49.482;7.716;2023-02-28T00:35:33;99730.44;;;-0.15;68.17
11542;BME280;5827;49.482;7.716;2023-02-28T00:37:34;99727.81;;;-0.15;68.13
11542;BME280;5827;49.482;7.716;2023-02-28T00:39:37;99722.72;;;-0.16;68.26
11542;BME280;5827;49.482;7.716;2023-02-28T00:41:38;99734.22;;;-0.17;68.86
11542;BME280;5827;49.482;7.716;2023-02-28T00:43:40;99735.63;;;-0.23;69.21
11542;BME280;5827;49.482;7.716;2023-02-28T00:45:42;99736.72;;;-0.16;69.46
11542;BME280;5827;49.482;7.716;2023-02-28T00:47:44;99728.78;;;-0.34;69.64
11542;BME280;5827;49.482;7.716;2023-02-28T00:49:49;99720.81;;;-0.42;70.25
11542;BME280;5827;49.482;7.716;2023-02-28T00:51:51;99721.78;;;-0.43;70.97
11542;BME280;5827;49.482;7.716;2023-02-28T00:53:53;99721.13;;;-0.45;71.32
11542;BME280;5827;49.482;7.716;2023-02-28T00:55:55;99727.53;;;-0.30;70.61
11542;BME280;5827;49.482;7.716;2023-02-28T00:57:56;99719.09;;;-0.33;70.85
11542;BME280;5827;49.482;7.716;2023-02-28T00:59:58;99720.59;;;-0.48;71.99
11542;BME280;5827;49.482;7.716;2023-02-28T01:01:59;99719.41;;;-0.36;71.65
11542;BME280;5827;49.482;7.716;2023-02-28T01:04:03;99722.31;;;-0.39;71.74
11542;BME280;5827;49.482;7.716;2023-02-28T01:06:05;99721.81;;;-0.25;71.30
11542;BME280;5827;49.482;7.716;2023-02-28T01:08:07;99722.50;;;-0.41;71.50
11542;BME280;5827;49.482;7.716;2023-02-28T01:10:09;99718.03;;;-0.40;71.86
11542;BME280;5827;49.482;7.716;2023-02-28T01:12:12;99725.50;;;-0.36;71.95
11542;BME280;5827;49.482;7.716;2023-02-28T01:14:14;99718.78;;;-0.30;71.45
11542;BME280;5827;49.482;7.716;2023-02-28T01:16:16;99719.53;;;-0.38;71.92
11542;BME280;5827;49.482;7.716;2023-02-28T01:18:19;99716.66;;;-0.62;73.38
11542;BME280;5827;49.482;7.716;2023-02-28T01:20:22;99710.34;;;-0.52;73.39
11542;BME280;5827;49.482;7.716;2023-02-28T01:22:23;99712.25;;;-0.44;72.91
11542;BME280;5827;49.482;7.716;2023-02-28T01:24:25;99712.09;;;-0.42;72.64
11542;BME280;5827;49.482;7.716;2023-02-28T01:26:26;99729.16;;;-0.29;72.62
11542;BME280;5827;49.482;7.716;2023-02-28T01:28:28;99720.81;;;-0.42;73.23
11542;BME280;5827;49.482;7.716;2023-02-28T01:30:30;99720.22;;;-0.36;73.16
11542;BME280;5827;49.482;7.716;2023-02-28T01:32:31;99723.97;;;-0.38;73.44
11542;BME280;5827;49.482;7.716;2023-02-28T01:34:33;99720.53;;;-0.39;72.76
11542;BME280;5827;49.482;7.716;2023-02-28T01:36:36;99718.69;;;-0.56;73.45
11542;BME280;5827;49.482;7.716;2023-02-28T01:38:38;99713.97;;;-0.53;73.96
11542;BME280;5827;49.482;7.716;2023-02-28T01:40:39;99716.00;;;-0.46;74.34
11542;BME280;5827;49.482;7.716;2023-02-28T01:42:41;99716.16;;;-0.48;74.07
11542;BME280;5827;49.482;7.716;2023-02-28T01:44:59;99711.34;;;-0.53;74.15
11542;BME280;5827;49.482;7.716;2023-02-28T01:47:00;99711.41;;;-0.62;75.07
11542;BME280;5827;49.482;7.716;2023-02-28T01:49:06;99710.47;;;-0.71;75.17
11542;BME280;5827;49.482;7.716;2023-02-28T01:51:11;99702.44;;;-0.69;75.57
11542;BME280;5827;49.482;7.716;2023-02-28T01:53:19;99699.00;;;-0.52;75.54
11542;BME280;5827;49.482;7.716;2023-02-28T01:55:23;99703.78;;;-0.65;75.53
11542;BME280;5827;49.482;7.716;2023-02-28T01:57:30;99689.63;;;-0.55;75.87
11542;BME280;5827;49.482;7.716;2023-02-28T01:59:38;99690.88;;;-0.59;76.11
11542;BME280;5827;49.482;7.716;2023-02-28T02:01:46;99693.72;;;-0.70;77.01
11542;BME280;5827;49.482;7.716;2023-02-28T02:03:48;99693.25;;;-0.65;76.67
11542;BME280;5827;49.482;7.716;2023-02-28T02:05:56;99696.00;;;-0.57;76.15
11542;BME280;5827;49.482;7.716;2023-02-28T02:08:03;99693.31;;;-0.75;76.89
11542;BME280;5827;49.482;7.716;2023-02-28T02:10:11;99698.09;;;-0.61;76.88
11542;BME280;5827;49.482;7.716;2023-02-28T02:12:23;99691.84;;;-0.60;76.15
11542;BME280;5827;49.482;7.716;2023-02-28T02:14:38;99687.84;;;-0.82;77.61
11542;BME280;5827;49.482;7.716;2023-02-28T02:16:52;99686.50;;;-0.68;77.26
11542;BME280;5827;49.482;7.716;2023-02-28T02:19:08;99680.72;;;-0.71;77.82
11542;BME280;5827;49.482;7.716;2023-02-28T02:21:47;99678.59;;;-0.86;77.84
11542;BME280;5827;49.482;7.716;2023-02-28T02:27:10;99677.59;;;-0.85;78.72
11542;BME280;5827;49.482;7.716;2023-02-28T02:29:31;99682.13;;;-0.77;78.76
11542;BME280;5827;49.482;7.716;2023-02-28T02:34:42;99681.31;;;-0.78;78.80
11542;BME280;5827;49.482;7.716;2023-02-28T02:36:47;99681.00;;;-0.74;78.53
11542;BME280;5827;49.482;7.716;2023-02-28T02:38:57;99670.72;;;-0.68;78.11
11542;BME280;5827;49.482;7.716;2023-02-28T02:41:08;99673.53;;;-0.79;78.93
11542;BME280;5827;49.482;7.716;2023-02-28T02:43:16;99675.59;;;-0.73;78.76
11542;BME280;5827;49.482;7.716;2023-02-28T02:45:24;99671.84;;;-0.70;78.45
11542;BME280;5827;49.482;7.716;2023-02-28T02:47:29;99679.97;;;-0.64;77.98
11542;BME280;5827;49.482;7.716;2023-02-28T02:49:33;99677.34;;;-0.64;77.89
11542;BME280;5827;49.482;7.716;2023-02-28T02:51:38;99677.09;;;-0.70;77.98
11542;BME280;5827;49.482;7.716;2023-02-28T02:53:45;99678.25;;;-0.73;78.16
11542;BME280;5827;49.482;7.716;2023-02-28T02:55:51;99674.47;;;-0.70;77.49
11542;BME280;5827;49.482;7.716;2023-02-28T02:57:58;99672.44;;;-0.77;78.74
11542;BME280;5827;49.482;7.716;2023-02-28T03:00:03;99679.94;;;-0.82;78.61
11542;BME280;5827;49.482;7.716;2023-02-28T03:02:11;99670.03;;;-0.70;78.82
11542;BME280;5827;49.482;7.716;2023-02-28T03:04:18;99676.44;;;-0.72;78.22
11542;BME280;5827;49.482;7.716;2023-02-28T03:06:22;99668.22;;;-0.69;77.89
11542;BME280;5827;49.482;7.716;2023-02-28T03:08:25;99679.00;;;-0.63;77.96
11542;BME280;5827;49.482;7.716;2023-02-28T03:10:30;99672.97;;;-0.73;77.90
11542;BME280;5827;49.482;7.716;2023-02-28T03:12:41;99671.16;;;-0.72;78.32
11542;BME280;5827;49.482;7.716;2023-02-28T03:14:56;99673.88;;;-0.82;79.00
11542;BME280;5827;49.482;7.716;2023-02-28T03:17:18;99666.94;;;-0.83;78.29
11542;BME280;5827;49.482;7.716;2023-02-28T03:19:31;99675.31;;;-0.97;79.29
11542;BME280;5827;49.482;7.716;2023-02-28T03:21:39;99669.50;;;-0.73;79.13
11542;BME280;5827;49.482;7.716;2023-02-28T03:23:48;99676.88;;;-0.77;78.61
11542;BME280;5827;49.482;7.716;2023-02-28T03:25:57;99658.91;;;-0.82;79.11
11542;BME280;5827;49.482;7.716;2023-02-28T03:28:07;99664.66;;;-0.96;79.74
11542;BME280;5827;49.482;7.716;2023-02-28T03:30:15;99666.81;;;-0.82;79.69
11542;BME280;5827;49.482;7.716;2023-02-28T03:32:24;99667.09;;;-0.85;79.18
11542;BME280;5827;49.482;7.716;2023-02-28T03:34:29;99662.25;;;-0.89;79.36
11542;BME280;5827;49.482;7.716;2023-02-28T03:36:37;99654.22;;;-0.88;79.57
11542;BME280;5827;49.482;7.716;2023-02-28T03:38:49;99659.09;;;-0.93;79.63
11542;BME280;5827;49.482;7.716;2023-02-28T03:40:58;99659.19;;;-0.85;79.40
11542;BME280;5827;49.482;7.716;2023-02-28T03:43:04;99659.72;;;-0.81;79.89
11542;BME280;5827;49.482;7.716;2023-02-28T03:45:11;99662.91;;;-1.05;80.27
11542;BME280;5827;49.482;7.716;2023-02-28T03:47:17;99662.09;;;-0.88;80.17
11542;BME280;5827;49.482;7.716;2023-02-28T03:49:22;99661.66;;;-0.83;79.33
11542;BME280;5827;49.482;7.716;2023-02-28T03:51:26;99661.38;;;-0.80;79.87
11542;BME280;5827;49.482;7.716;2023-02-28T03:53:33;99661.16;;;-0.87;80.03
11542;BME280;5827;49.482;7.716;2023-02-28T03:55:39;99670.63;;;-0.76;79.31
11542;BME280;5827;49.482;7.716;2023-02-28T03:57:50;99666.88;;;-1.01;80.64
11542;BME280;5827;49.482;7.716;2023-02-28T03:59:59;99658.97;;;-0.91;79.95
11542;BME280;5827;49.482;7.716;2023-02-28T04:02:04;99665.22;;;-0.74;79.55
11542;BME280;5827;49.482;7.716;2023-02-28T04:04:06;99661.59;;;-0.91;80.83
11542;BME280;5827;49.482;7.716;2023-02-28T04:06:15;99662.94;;;-0.87;80.30
11542;BME280;5827;49.482;7.716;2023-02-28T04:08:18;99666.94;;;-0.83;79.87
11542;BME280;5827;49.482;7.716;2023-02-28T04:10:19;99660.72;;;-1.10;80.77
11542;BME280;5827;49.482;7.716;2023-02-28T04:12:22;99663.75;;;-1.05;81.02
11542;BME280;5827;49.482;7.716;2023-02-28T04:14:24;99662.03;;;-0.96;80.43
11542;BME280;5827;49.482;7.716;2023-02-28T04:16:26;99662.72;;;-0.94;80.95
11542;BME280;5827;49.482;7.716;2023-02-28T04:18:28;99660.09;;;-0.76;80.38
11542;BME280;5827;49.482;7.716;2023-02-28T04:20:29;99648.88;;;-0.96;81.07
11542;BME280;5827;49.482;7.716;2023-02-28T04:22:31;99654.53;;;-0.91;80.72
11542;BME280;5827;49.482;7.716;2023-02-28T04:24:32;99661.53;;;-0.82;80.10
11542;BME280;5827;49.482;7.716;2023-02-28T04:26:35;99659.56;;;-0.80;80.65
11542;BME280;5827;49.482;7.716;2023-02-28T04:28:39;99653.38;;;-0.88;80.61
11542;BME280;5827;49.482;7.716;2023-02-28T04:30:40;99652.72;;;-0.90;80.49
11542;BME280;5827;49.482;7.716;2023-02-28T04:32:42;99648.28;;;-0.90;80.77
11542;BME280;5827;49.482;7.716;2023-02-28T04:34:43;99662.09;;;-0.88;80.83
11542;BME280;5827;49.482;7.716;2023-02-28T04:36:45;99654.44;;;-0.99;81.15
11542;BME280;5827;49.482;7.716;2023-02-28T04:38:49;99660.34;;;-0.97;80.98
11542;BME280;5827;49.482;7.716;2023-02-28T04:40:50;99654.38;;;-0.89;81.22
11542;BME280;5827;49.482;7.716;2023-02-28T04:42:52;99650.38;;;-0.93;80.78
11542;BME280;5827;49.482;7.716;2023-02-28T04:44:55;99660.31;;;-0.69;80.32
11542;BME280;5827;49.482;7.716;2023-02-28T04:46:56;99653.78;;;-0.83;80.89
11542;BME280;5827;49.482;7.716;2023-02-28T04:48:58;99661.41;;;-1.08;81.29
11542;BME280;5827;49.482;7.716;2023-02-28T04:51:00;99657.53;;;-0.86;80.75
11542;BME280;5827;49.482;7.716;2023-02-28T04:53:02;99658.47;;;-1.05;81.54
11542;BME280;5827;49.482;7.716;2023-02-28T04:55:05;99648.13;;;-0.88;81.46
11542;BME280;5827;49.482;7.716;2023-02-28T04:57:06;99664.78;;;-0.97;80.97
11542;BME280;5827;49.482;7.716;2023-02-28T04:59:08;99658.28;;;-0.93;81.55
11542;BME280;5827;49.482;7.716;2023-02-28T05:01:20;99668.47;;;-1.08;81.55
11542;BME280;5827;49.482;7.716;2023-02-28T05:03:21;99660.31;;;-0.87;80.90
11542;BME280;5827;49.482;7.716;2023-02-28T05:05:23;99660.75;;;-0.92;80.93
11542;BME280;5827;49.482;7.716;2023-02-28T05:07:24;99660.06;;;-0.94;80.80
11542;BME280;5827;49.482;7.716;2023-02-28T05:09:26;99665.88;;;-0.90;80.84
11542;BME280;5827;49.482;7.716;2023-02-28T05:11:29;99663.97;;;-0.98;81.76
11542;BME280;5827;49.482;7.716;2023-02-28T05:13:35;99665.34;;;-0.94;81.34
11542;BME280;5827;49.482;7.716;2023-02-28T05:15:36;99671.59;;;-0.95;81.27
11542;BME280;5827;49.482;7.716;2023-02-28T05:17:40;99671.59;;;-1.22;82.63
11542;BME280;5827;49.482;7.716;2023-02-28T05:19:41;99667.31;;;-0.96;81.49
11542;BME280;5827;49.482;7.716;2023-02-28T05:21:49;99670.22;;;-0.99;81.65
11542;BME280;5827;49.482;7.716;2023-02-28T05:23:51;99678.38;;;-1.02;81.35
11542;BME280;5827;49.482;7.716;2023-02-28T05:25:53;99664.75;;;-0.88;81.69
11542;BME280;5827;49.482;7.716;2023-02-28T05:27:55;99670.16;;;-0.89;81.52
11542;BME280;5827;49.482;7.716;2023-02-28T05:29:56;99666.59;;;-0.98;82.09
11542;BME280;5827;49.482;7.716;2023-02-28T05:31:59;99668.41;;;-0.98;82.68
11542;BME280;5827;49.482;7.716;2023-02-28T05:34:02;99674.06;;;-0.93;81.68
11542;BME280;5827;49.482;7.716;2023-02-28T05:36:05;99666.44;;;-0.96;81.93
11542;BME280;5827;49.482;7.716;2023-02-28T05:38:07;99669.06;;;-0.96;81.92
11542;BME280;5827;49.482;7.716;2023-02-28T05:40:10;99664.34;;;-0.93;82.13
11542;BME280;5827;49.482;7.716;2023-02-28T05:42:12;99670.69;;;-0.86;82.39
11542;BME280;5827;49.482;7.716;2023-02-28T05:44:16;99674.25;;;-1.05;82.99
11542;BME280;5827;49.482;7.716;2023-02-28T05:46:17;99669.72;;;-1.12;82.89
11542;BME280;5827;49.482;7.716;2023-02-28T05:48:19;99673.66;;;-0.98;82.88
11542;BME280;5827;49.482;7.716;2023-02-28T05:50:22;99669.66;;;-1.03;83.35
11542;BME280;5827;49.482;7.716;2023-02-28T05:52:24;99676.41;;;-0.90;82.54
11542;BME280;5827;49.482;7.716;2023-02-28T05:54:25;99680.63;;;-0.80;82.12
11542;BME280;5827;49.482;7.716;2023-02-28T05:56:27;99676.78;;;-0.85;81.92
11542;BME280;5827;49.482;7.716;2023-02-28T05:58:29;99673.66;;;-0.98;82.58
11542;BME280;5827;49.482;7.716;2023-02-28T06:00:31;99675.47;;;-0.99;83.01
11542;BME280;5827;49.482;7.716;2023-02-28T06:02:33;99670.72;;;-1.13;83.53
11542;BME280;5827;49.482;7.716;2023-02-28T06:04:34;99670.13;;;-1.07;83.33
11542;BME280;5827;49.482;7.716;2023-02-28T06:06:37;99679.22;;;-1.02;82.46
11542;BME280;5827;49.482;7.716;2023-02-28T06:08:39;99670.72;;;-1.13;83.28
11542;BME280;5827;49.482;7.716;2023-02-28T06:10:41;99679.84;;;-1.17;83.65
11542;BME280;5827;49.482;7.716;2023-02-28T06:12:42;99683.22;;;-0.97;83.16
11542;BME280;5827;49.482;7.716;2023-02-28T06:14:44;99680.78;;;-1.09;83.45
11542;BME280;5827;49.482;7.716;2023-02-28T06:16:46;99685.56;;;-0.94;83.28
11542;BME280;5827;49.482;7.716;2023-02-28T06:18:48;99692.47;;;-0.93;82.71
11542;BME280;5827;49.482;7.716;2023-02-28T06:20:52;99693.94;;;-1.09;82.56
11542;BME280;5827;49.482;7.716;2023-02-28T06:22:56;99693.13;;;-1.09;83.74
11542;BME280;5827;49.482;7.716;2023-02-28T06:24:58;99687.63;;;-0.98;83.26
11542;BME280;5827;49.482;7.716;2023-02-28T06:27:00;99698.88;;;-0.96;83.54
11542;BME280;5827;49.482;7.716;2023-02-28T06:29:05;99699.81;;;-0.97;82.18
11542;BME280;5827;49.482;7.716;2023-02-28T06:31:08;99699.31;;;-1.00;83.03
11542;BME280;5827;49.482;7.716;2023-02-28T06:33:09;99699.09;;;-0.89;83.15
11542;BME280;5827;49.482;7.716;2023-02-28T06:35:11;99708.72;;;-0.80;82.08
11542;BME280;5827;49.482;7.716;2023-02-28T06:37:13;99703.59;;;-0.99;82.44
11542;BME280;5827;49.482;7.716;2023-02-28T06:39:17;99705.81;;;-0.77;82.28
11542;BME280;5827;49.482;7.716;2023-02-28T06:41:19;99705.56;;;-0.84;82.18
11542;BME280;5827;49.482;7.716;2023-02-28T06:43:21;99704.63;;;-0.65;81.83
11542;BME280;5827;49.482;7.716;2023-02-28T06:45:22;99719.34;;;-0.72;81.46
11542;BME280;5827;49.482;7.716;2023-02-28T06:47:26;99705.81;;;-0.77;82.18
11542;BME280;5827;49.482;7.716;2023-02-28T06:49:28;99711.91;;;-0.77;81.52
11542;BME280;5827;49.482;7.716;2023-02-28T06:51:29;99710.16;;;-0.86;81.12
11542;BME280;5827;49.482;7.716;2023-02-28T06:53:31;99712.56;;;-0.74;81.69
11542;BME280;5827;49.482;7.716;2023-02-28T06:55:34;99719.75;;;-0.94;82.07
11542;BME280;5827;49.482;7.716;2023-02-28T06:57:36;99716.72;;;-0.72;80.97
11542;BME280;5827;49.482;7.716;2023-02-28T06:59:37;99722.09;;;-0.64;81.37
11542;BME280;5827;49.482;7.716;2023-02-28T07:01:39;99732.44;;;-0.62;80.69
11542;BME280;5827;49.482;7.716;2023-02-28T07:03:41;99722.00;;;-0.72;81.78
11542;BME280;5827;49.482;7.716;2023-02-28T07:05:43;99721.09;;;-0.63;80.59
11542;BME280;5827;49.482;7.716;2023-02-28T07:07:44;99731.41;;;-0.52;80.19
11542;BME280;5827;49.482;7.716;2023-02-28T07:09:47;99731.47;;;-0.61;80.51
11542;BME280;5827;49.482;7.716;2023-02-28T07:11:50;99733.66;;;-0.57;80.78
11542;BME280;5827;49.482;7.716;2023-02-28T07:13:51;99733.06;;;-0.51;79.79
11542;BME280;5827;49.482;7.716;2023-02-28T07:15:54;99729.38;;;-0.58;79.74
11542;BME280;5827;49.482;7.716;2023-02-28T07:17:56;99731.03;;;-0.57;79.99
11542;BME280;5827;49.482;7.716;2023-02-28T07:19:57;99737.50;;;-0.51;79.42
11542;BME280;5827;49.482;7.716;2023-02-28T07:21:59;99737.97;;;-0.38;79.03
11542;BME280;5827;49.482;7.716;2023-02-28T07:24:01;99741.38;;;-0.45;79.27
11542;BME280;5827;49.482;7.716;2023-02-28T07:26:03;99742.19;;;-0.45;79.33
11542;BME280;5827;49.482;7.716;2023-02-28T07:28:06;99736.84;;;-0.35;78.89
11542;BME280;5827;49.482;7.716;2023-02-28T07:30:09;99737.38;;;-0.32;78.88
11542;BME280;5827;49.482;7.716;2023-02-28T07:32:11;99741.97;;;-0.16;78.33
11542;BME280;5827;49.482;7.716;2023-02-28T07:34:12;99741.59;;;-0.21;77.32
11542;BME280;5827;49.482;7.716;2023-02-28T07:36:16;99744.31;;;-0.31;78.00
11542;BME280;5827;49.482;7.716;2023-02-28T07:38:19;99737.00;;;-0.01;78.02
11542;BME280;5827;49.482;7.716;2023-02-28T07:40:21;99740.44;;;-0.01;76.98
11542;BME280;5827;49.482;7.716;2023-02-28T07:42:22;99746.03;;;-0.04;76.57
11542;BME280;5827;49.482;7.716;2023-02-28T07:44:25;99747.16;;;-0.06;77.04
11542;BME280;5827;49.482;7.716;2023-02-28T07:46:27;99747.00;;;-0.05;76.51
11542;BME280;5827;49.482;7.716;2023-02-28T07:48:29;99746.41;;;0.02;76.60
11542;BME280;5827;49.482;7.716;2023-02-28T07:50:31;99746.03;;;-0.04;76.71
11542;BME280;5827;49.482;7.716;2023-02-28T07:52:32;99746.97;;;0.31;76.20
11542;BME280;5827;49.482;7.716;2023-02-28T07:54:34;99751.31;;;0.14;75.08
11542;BME280;5827;49.482;7.716;2023-02-28T07:56:35;99748.78;;;0.31;75.65
11542;BME280;5827;49.482;7.716;2023-02-28T07:58:37;99753.31;;;0.20;75.28
11542;BME280;5827;49.482;7.716;2023-02-28T08:00:40;99753.66;;;0.43;74.81
11542;BME280;5827;49.482;7.716;2023-02-28T08:02:42;99757.09;;;0.62;74.90
11542;BME280;5827;49.482;7.716;2023-02-28T08:04:44;99760.03;;;0.59;73.49
11542;BME280;5827;49.482;7.716;2023-02-28T08:06:46;99754.50;;;0.70;73.95
11542;BME280;5827;49.482;7.716;2023-02-28T08:08:48;99749.38;;;0.42;72.83
11542;BME280;5827;49.482;7.716;2023-02-28T08:10:49;99754.84;;;0.23;74.81
11542;BME280;5827;49.482;7.716;2023-02-28T08:12:51;99759.13;;;0.50;74.41
11542;BME280;5827;49.482;7.716;2023-02-28T08:14:52;99770.56;;;0.33;73.55
11542;BME280;5827;49.482;7.716;2023-02-28T08:16:55;99759.06;;;0.60;72.88
11542;BME280;5827;49.482;7.716;2023-02-28T08:18:57;99763.72;;;0.66;72.54
11542;BME280;5827;49.482;7.716;2023-02-28T08:20:58;99764.69;;;0.65;72.37
11542;BME280;5827;49.482;7.716;2023-02-28T08:23:00;99761.91;;;0.66;71.88
11542;BME280;5827;49.482;7.716;2023-02-28T08:25:01;99762.19;;;0.89;71.91
11542;BME280;5827;49.482;7.716;2023-02-28T08:27:03;99773.84;;;0.79;71.65
11542;BME280;5827;49.482;7.716;2023-02-28T08:29:05;99771.69;;;1.08;71.31
11542;BME280;5827;49.482;7.716;2023-02-28T08:31:08;99764.78;;;0.81;71.13
11542;BME280;5827;49.482;7.716;2023-02-28T08:33:11;99768.13;;;0.91;70.81
11542;BME280;5827;49.482;7.716;2023-02-28T08:35:13;99769.41;;;0.79;71.02
11542;BME280;5827;49.482;7.716;2023-02-28T08:37:14;99774.81;;;0.77;71.49
11542;BME280;5827;49.482;7.716;2023-02-28T08:39:16;99769.47;;;0.95;70.13
11542;BME280;5827;49.482;7.716;2023-02-28T08:41:18;99769.47;;;0.95;69.38
11542;BME280;5827;49.482;7.716;2023-02-28T08:43:19;99768.03;;;1.01;69.10
11542;BME280;5827;49.482;7.716;2023-02-28T08:45:21;99771.66;;;1.00;68.17
11542;BME280;5827;49.482;7.716;2023-02-28T08:47:23;99767.88;;;0.76;69.49
11542;BME280;5827;49.482;7.716;2023-02-28T08:49:26;99774.38;;;1.16;69.52
11542;BME280;5827;49.482;7.716;2023-02-28T08:51:29;99771.34;;;1.03;69.02
11542;BME280;5827;49.482;7.716;2023-02-28T08:53:31;99788.41;;;1.17;67.98
11542;BME280;5827;49.482;7.716;2023-02-28T08:55:33;99771.03;;;1.06;68.76
11542;BME280;5827;49.482;7.716;2023-02-28T08:57:34;99769.00;;;1.00;69.02
11542;BME280;5827;49.482;7.716;2023-02-28T08:59:36;99791.03;;;1.17;67.21
11542;BME280;5827;49.482;7.716;2023-02-28T09:01:38;99773.91;;;1.21;68.07
11542;BME280;5827;49.482;7.716;2023-02-28T09:03:42;99772.75;;;1.23;67.63
11542;BME280;5827;49.482;7.716;2023-02-28T09:05:53;99775.28;;;1.41;67.53
11542;BME280;5827;49.482;7.716;2023-02-28T09:07:55;99780.34;;;1.61;66.38
11542;BME280;5827;49.482;7.716;2023-02-28T09:09:59;99774.47;;;1.41;67.11
11542;BME280;5827;49.482;7.716;2023-02-28T09:12:01;99775.94;;;1.35;66.57
11542;BME280;5827;49.482;7.716;2023-02-28T09:14:03;99777.94;;;1.41;65.73
11542;BME280;5827;49.482;7.716;2023-02-28T09:16:08;99778.97;;;1.48;65.82
11542;BME280;5827;49.482;7.716;2023-02-28T09:18:13;99776.66;;;1.53;66.31
11542;BME280;5827;49.482;7.716;2023-02-28T09:20:15;99772.25;;;1.62;65.71
11542;BME280;5827;49.482;7.716;2023-02-28T09:22:18;99778.66;;;1.60;65.27
11542;BME280;5827;49.482;7.716;2023-02-28T09:24:20;99785.94;;;1.58;66.09
11542;BME280;5827;49.482;7.716;2023-02-28T09:26:23;99768.16;;;1.92;66.08
11542;BME280;5827;49.482;7.716;2023-02-28T09:28:25;99785.34;;;1.96;64.24
11542;BME280;5827;49.482;7.716;2023-02-28T09:30:26;99782.66;;;1.72;65.10
11542;BME280;5827;49.482;7.716;2023-02-28T09:32:28;99776.44;;;2.06;64.92
11542;BME280;5827;49.482;7.716;2023-02-28T09:34:30;99773.47;;;2.09;63.77
11542;BME280;5827;49.482;7.716;2023-02-28T09:36:31;99786.16;;;1.81;64.46
11542;BME280;5827;49.482;7.716;2023-02-28T09:38:35;99778.06;;;1.82;64.65
11542;BME280;5827;49.482;7.716;2023-02-28T09:40:38;99781.88;;;1.80;64.46
11542;BME280;5827;49.482;7.716;2023-02-28T09:42:41;99777.06;;;1.83;64.29
11542;BME280;5827;49.482;7.716;2023-02-28T09:44:44;99781.75;;;2.22;64.21
11542;BME280;5827;49.482;7.716;2023-02-28T09:46:50;99774.63;;;1.90;64.69
11542;BME280;5827;49.482;7.716;2023-02-28T09:48:54;99785.38;;;2.04;64.48
11542;BME280;5827;49.482;7.716;2023-02-28T09:51:00;99785.03;;;2.24;64.56
11542;BME280;5827;49.482;7.716;2023-02-28T09:53:14;99774.81;;;2.29;63.77
11542;BME280;5827;49.482;7.716;2023-02-28T09:55:24;99785.41;;;2.21;63.56
11542;BME280;5827;49.482;7.716;2023-02-28T09:57:32;99787.34;;;2.19;63.85
11542;BME280;5827;49.482;7.716;2023-02-28T09:59:42;99784.09;;;2.25;63.56
11542;BME280;5827;49.482;7.716;2023-02-28T10:01:50;99783.88;;;2.18;63.72
11542;BME280;5827;49.482;7.716;2023-02-28T10:03:58;99770.84;;;2.17;63.30
11542;BME280;5827;49.482;7.716;2023-02-28T10:06:06;99781.56;;;1.99;63.70
11542;BME280;5827;49.482;7.716;2023-02-28T10:08:13;99774.00;;;2.20;63.66
11542;BME280;5827;49.482;7.716;2023-02-28T10:10:23;99770.69;;;2.18;62.78
11542;BME280;5827;49.482;7.716;2023-02-28T10:12:27;99773.16;;;2.36;63.04
11542;BME280;5827;49.482;7.716;2023-02-28T10:14:33;99782.25;;;2.42;63.40
11542;BME280;5827;49.482;7.716;2023-02-28T10:16:37;99782.44;;;2.48;61.87
11542;BME280;5827;49.482;7.716;2023-02-28T10:18:45;99784.09;;;2.25;62.68
11542;BME280;5827;49.482;7.716;2023-02-28T10:20:48;99782.06;;;2.60;61.38
11542;BME280;5827;49.482;7.716;2023-02-28T10:22:53;99776.28;;;2.72;61.26
11542;BME280;5827;49.482;7.716;2023-02-28T10:24:58;99779.03;;;3.03;60.93
11542;BME280;5827;49.482;7.716;2023-02-28T10:27:13;99783.44;;;3.19;60.53
11542;BME280;5827;49.482;7.716;2023-02-28T10:29:15;99783.44;;;3.19;59.66
11542;BME280;5827;49.482;7.716;2023-02-28T10:31:18;99787.22;;;3.25;59.17
11542;BME280;5827;49.482;7.716;2023-02-28T10:33:23;99787.41;;;3.15;58.99
11542;BME280;5827;49.482;7.716;2023-02-28T10:35:26;99774.97;;;3.24;58.82
11542;BME280;5827;49.482;7.716;2023-02-28T10:37:28;99786.69;;;3.38;58.07
11542;BME280;5827;49.482;7.716;2023-02-28T10:39:38;99777.72;;;3.39;57.49
11542;BME280;5827;49.482;7.716;2023-02-28T10:41:42;99787.69;;;3.37;57.00
11542;BME280;5827;49.482;7.716;2023-02-28T10:43:46;99781.53;;;3.44;57.01
11542;BME280;5827;49.482;7.716;2023-02-28T10:45:59;99781.34;;;3.46;57.45
11542;BME280;5827;49.482;7.716;2023-02-28T10:48:04;99770.84;;;3.61;57.43
11542;BME280;5827;49.482;7.716;2023-02-28T10:50:26;99780.06;;;3.73;56.04
11542;BME280;5827;49.482;7.716;2023-02-28T10:52:37;99767.72;;;3.88;56.59
11542;BME280;5827;49.482;7.716;2023-02-28T10:54:40;99780.41;;;4.01;55.46
11542;BME280;5827;49.482;7.716;2023-02-28T10:56:41;99778.22;;;4.04;54.49
11542;BME280;5827;49.482;7.716;2023-02-28T10:58:54;99779.97;;;3.89;54.59
11542;BME280;5827;49.482;7.716;2023-02-28T11:00:56;99772.91;;;4.04;54.62
11542;BME280;5827;49.482;7.716;2023-02-28T11:02:57;99772.66;;;4.37;53.41
11542;BME280;5827;49.482;7.716;2023-02-28T11:04:59;99785.94;;;4.14;53.80
11542;BME280;5827;49.482;7.716;2023-02-28T11:07:02;99788.38;;;3.93;53.61
11542;BME280;5827;49.482;7.716;2023-02-28T11:09:15;99771.50;;;4.17;54.20
11542;BME280;5827;49.482;7.716;2023-02-28T11:11:20;99785.28;;;4.35;53.20
11542;BME280;5827;49.482;7.716;2023-02-28T11:13:26;99786.22;;;3.96;52.28
11542;BME280;5827;49.482;7.716;2023-02-28T11:15:32;99782.72;;;3.73;53.67